Time;durP1;ratioP1;P1;durP2;ratioP2;P2;SDS_P1;SDS_P2;PMS_P1;PMS_P2;Temp;Humidity;BMP_temperature;BMP_pressure;BME280_temperature;BME280_humidity;BME280_pressure;Samples;Min_cycle;Max_cycle;Signal;HPM_P1;HPM_P2
2023/06/18 00:00:34;;;;;;;7.32;4.85;;;;;;;18.87;58.89;101048.97;5007232;28;20026;-72
2023/06/18 00:03:00;;;;;;;5.82;4.22;;;;;;;18.82;59.48;101046.97;5009797;28;20029;-72
2023/06/18 00:05:25;;;;;;;9.40;4.70;;;;;;;18.76;60.19;101049.56;5008369;28;20087;-72
2023/06/18 00:07:51;;;;;;;8.43;4.50;;;;;;;18.70;61.33;101047.75;5011818;28;20029;-72
2023/06/18 00:10:16;;;;;;;8.93;4.93;;;;;;;18.64;61.97;101049.38;5005072;28;20500;-72
2023/06/18 00:12:42;;;;;;;9.65;5.00;;;;;;;18.59;62.15;101054.41;5004892;28;20033;-73
2023/06/18 00:15:07;;;;;;;8.75;5.00;;;;;;;18.53;62.32;101049.97;5026547;28;20555;-73
2023/06/18 00:17:33;;;;;;;7.57;4.72;;;;;;;18.52;62.41;101053.63;5009877;28;20425;-72
2023/06/18 00:20:03;;;;;;;8.93;5.28;;;;;;;18.54;62.61;101041.09;5011133;28;20080;-72
2023/06/18 00:22:29;;;;;;;13.05;5.07;;;;;;;18.59;62.49;101036.03;5005630;28;20429;-72
2023/06/18 00:24:54;;;;;;;6.68;4.63;;;;;;;18.61;62.36;101034.84;5008958;28;20056;-72
2023/06/18 00:27:23;;;;;;;8.57;4.68;;;;;;;18.58;62.52;101024.72;5035674;28;20030;-73
2023/06/18 00:29:48;;;;;;;9.77;5.00;;;;;;;18.55;62.73;101024.31;5009082;28;22184;-73
2023/06/18 00:32:14;;;;;;;10.50;4.88;;;;;;;18.50;62.69;101027.56;5038257;28;20029;-72
2023/06/18 00:34:41;;;;;;;6.85;4.97;;;;;;;18.44;62.93;101031.81;5013273;28;20053;-73
2023/06/18 00:37:10;;;;;;;8.13;5.18;;;;;;;18.42;62.88;101027.75;5013100;28;20038;-73
2023/06/18 00:39:39;;;;;;;7.75;5.05;;;;;;;18.42;62.87;101028.59;5011072;28;20807;-72
2023/06/18 00:42:10;;;;;;;9.68;5.82;;;;;;;18.45;62.85;101030.00;5010101;28;20040;-72
2023/06/18 00:44:39;;;;;;;9.63;5.47;;;;;;;18.45;62.98;101030.78;5007904;28;20128;-72
2023/06/18 00:47:06;;;;;;;8.77;5.35;;;;;;;18.47;62.38;101020.88;5003604;28;20099;-72
2023/06/18 00:49:31;;;;;;;8.65;5.10;;;;;;;18.54;62.45;101017.47;5013010;28;20132;-73
2023/06/18 00:51:58;;;;;;;7.97;4.53;;;;;;;18.57;62.85;101017.06;5010307;28;20124;-73
2023/06/18 00:54:29;;;;;;;8.48;5.35;;;;;;;18.58;62.82;101019.47;5020950;28;20048;-72
2023/06/18 00:56:57;;;;;;;13.27;5.60;;;;;;;18.59;62.82;101023.72;5011243;28;20405;-72
2023/06/18 00:59:22;;;;;;;7.78;5.18;;;;;;;18.60;62.76;101022.72;4982802;28;20054;-72
2023/06/18 01:01:51;;;;;;;6.60;5.00;;;;;;;18.46;63.45;101019.28;4988279;28;20481;-72
2023/06/18 01:04:20;;;;;;;8.45;5.30;;;;;;;18.34;64.25;101017.47;4998506;28;20520;-73
2023/06/18 01:06:51;;;;;;;10.95;5.63;;;;;;;18.18;64.71;101018.69;4970750;28;20088;-73
2023/06/18 01:09:21;;;;;;;8.13;5.20;;;;;;;18.04;65.28;101023.91;5000643;28;20153;-72
2023/06/18 01:11:51;;;;;;;11.40;6.00;;;;;;;17.93;65.78;101021.84;4972498;28;20027;-73
2023/06/18 01:14:25;;;;;;;7.45;5.45;;;;;;;17.80;66.35;101022.63;4985631;28;20048;-72
2023/06/18 01:17:06;;;;;;;8.93;5.40;;;;;;;17.71;66.75;101032.47;4986816;28;20038;-72
2023/06/18 01:20:09;;;;;;;11.73;5.70;;;;;;;17.67;67.00;101031.25;4985568;28;20061;-72
2023/06/18 01:23:01;;;;;;;7.68;5.45;;;;;;;17.69;66.68;101021.38;5017210;28;20031;-73
2023/06/18 01:25:32;;;;;;;13.50;5.97;;;;;;;17.73;66.81;101024.44;5027691;28;20511;-72
2023/06/18 01:28:01;;;;;;;10.23;6.32;;;;;;;17.75;66.63;101022.41;4989107;28;20033;-72
2023/06/18 01:30:28;;;;;;;9.80;5.53;;;;;;;17.77;66.44;101020.41;5035502;28;20046;-72
2023/06/18 01:32:56;;;;;;;9.15;6.60;;;;;;;17.76;66.64;101013.53;5010658;28;20029;-73
2023/06/18 01:35:22;;;;;;;13.75;6.00;;;;;;;17.78;66.23;101015.94;5017162;28;20096;-72
2023/06/18 01:38:15;;;;;;;10.10;6.43;;;;;;;17.79;66.28;101018.38;5011956;28;20025;-73
2023/06/18 01:41:08;;;;;;;9.50;6.37;;;;;;;17.80;66.07;101013.94;4993422;28;20500;-72
2023/06/18 01:43:33;;;;;;;10.05;6.57;;;;;;;17.82;65.95;101011.91;4998144;28;20055;-72
2023/06/18 01:46:12;;;;;;;7.78;5.03;;;;;;;17.78;66.40;101019.41;4977968;28;20134;-72
2023/06/18 01:48:43;;;;;;;10.70;6.00;;;;;;;17.67;66.96;101015.53;5002547;28;20042;-73
2023/06/18 01:51:11;;;;;;;9.43;6.00;;;;;;;17.63;67.32;101010.88;4974474;28;20029;-73
2023/06/18 01:53:37;;;;;;;11.63;6.72;;;;;;;17.64;67.42;101015.13;4992595;28;20039;-73
2023/06/18 01:56:03;;;;;;;9.10;5.60;;;;;;;17.62;67.28;101012.69;4991296;28;20022;-73
2023/06/18 01:58:33;;;;;;;10.23;6.22;;;;;;;17.46;68.17;101013.84;4988976;28;20113;-72
2023/06/18 02:00:59;;;;;;;12.75;5.95;;;;;;;17.31;68.99;101005.34;4990027;28;20026;-73
2023/06/18 02:03:26;;;;;;;11.98;5.95;;;;;;;17.18;69.55;101008.69;4990023;28;20049;-73
2023/06/18 02:05:51;;;;;;;8.82;6.03;;;;;;;17.12;69.84;101001.59;4989301;28;20076;-73
2023/06/18 02:08:20;;;;;;;9.60;6.60;;;;;;;17.07;69.87;100996.16;5006176;28;20112;-73
2023/06/18 02:10:45;;;;;;;14.13;6.32;;;;;;;17.06;69.94;100992.69;4988442;28;20665;-73
2023/06/18 02:13:11;;;;;;;11.55;6.00;;;;;;;17.10;69.61;100993.13;4991691;28;20556;-73
2023/06/18 02:15:37;;;;;;;10.35;6.47;;;;;;;17.13;69.68;100995.38;5006937;28;20025;-73
2023/06/18 02:18:03;;;;;;;11.35;6.45;;;;;;;17.15;69.78;100988.13;5020450;28;20084;-73
2023/06/18 02:20:29;;;;;;;9.73;6.07;;;;;;;17.17;69.75;100996.59;5031376;28;20380;-73
2023/06/18 02:22:55;;;;;;;11.07;7.00;;;;;;;17.18;69.66;100992.16;5012155;28;20033;-73
2023/06/18 02:25:28;;;;;;;8.85;5.97;;;;;;;17.09;69.91;100989.69;5022778;28;20132;-72
2023/06/18 02:27:58;;;;;;;11.25;6.47;;;;;;;16.95;70.66;100987.22;5012073;28;20412;-73
2023/06/18 02:30:24;;;;;;;12.38;6.75;;;;;;;16.81;71.22;100994.97;5023242;28;20050;-73
2023/06/18 02:32:50;;;;;;;9.45;6.10;;;;;;;16.65;71.63;100987.41;4989404;28;20521;-72
2023/06/18 02:35:16;;;;;;;9.93;6.50;;;;;;;16.53;72.06;100992.34;5009906;28;20038;-72
2023/06/18 02:37:42;;;;;;;12.55;6.95;;;;;;;16.46;72.44;100992.31;5025060;28;20037;-72
2023/06/18 02:40:09;;;;;;;12.10;6.80;;;;;;;16.42;72.68;100995.50;5009217;28;20050;-72
2023/06/18 02:42:35;;;;;;;9.88;6.72;;;;;;;16.36;73.22;100983.97;5003736;28;20037;-73
2023/06/18 02:45:03;;;;;;;9.77;6.53;;;;;;;16.35;73.14;100983.19;4990510;28;20066;-72
2023/06/18 02:47:28;;;;;;;9.40;5.78;;;;;;;16.34;73.23;100985.97;4999635;28;20036;-73
2023/06/18 02:49:55;;;;;;;9.38;6.32;;;;;;;16.31;73.21;100981.09;4989591;28;20046;-72
2023/06/18 02:52:20;;;;;;;10.98;6.55;;;;;;;16.31;73.10;100981.94;4987999;28;20026;-73
2023/06/18 02:54:46;;;;;;;10.10;7.13;;;;;;;16.33;72.83;100977.31;4986664;28;20544;-73
2023/06/18 02:57:11;;;;;;;11.68;7.30;;;;;;;16.36;72.68;100981.34;4988247;28;20088;-73
2023/06/18 02:59:37;;;;;;;11.90;6.60;;;;;;;16.34;72.76;100973.69;4987698;28;20412;-73
2023/06/18 03:02:04;;;;;;;14.07;7.25;;;;;;;16.30;73.13;100972.47;5001813;28;20096;-73
2023/06/18 03:04:30;;;;;;;13.13;7.32;;;;;;;16.26;73.16;100979.06;4988595;28;20445;-73
2023/06/18 03:06:59;;;;;;;9.35;6.50;;;;;;;16.27;72.91;100979.88;5000461;28;20034;-72
2023/06/18 03:09:27;;;;;;;11.18;7.25;;;;;;;16.25;72.74;100985.28;4985179;28;20092;-73
2023/06/18 03:11:55;;;;;;;10.55;6.82;;;;;;;16.29;72.28;100983.09;5007533;28;20061;-73
2023/06/18 03:14:22;;;;;;;14.05;7.20;;;;;;;16.33;71.97;100979.09;4989636;28;20088;-73
2023/06/18 03:16:48;;;;;;;10.40;7.32;;;;;;;16.37;71.56;100987.38;5010690;28;20045;-72
2023/06/18 03:19:15;;;;;;;10.70;6.97;;;;;;;16.38;71.29;100986.41;4999849;28;20049;-72
2023/06/18 03:21:42;;;;;;;10.65;7.30;;;;;;;16.41;71.21;100988.66;5005084;28;20041;-72
2023/06/18 03:24:08;;;;;;;10.77;6.25;;;;;;;16.41;71.04;100992.06;5004397;28;20456;-73
2023/06/18 03:26:36;;;;;;;10.60;6.63;;;;;;;16.41;71.27;100997.31;5000514;28;20040;-73
2023/06/18 03:29:03;;;;;;;12.65;7.75;;;;;;;16.42;71.25;100992.88;5001067;28;20043;-73
2023/06/18 03:31:32;;;;;;;11.35;7.38;;;;;;;16.44;71.21;100990.88;4989556;28;20061;-73
2023/06/18 03:34:01;;;;;;;10.82;6.90;;;;;;;16.44;70.79;100991.69;5010851;28;20048;-72
2023/06/18 03:36:34;;;;;;;14.02;7.68;;;;;;;16.44;70.38;100998.72;5002978;28;20415;-73
2023/06/18 03:39:00;;;;;;;13.00;6.75;;;;;;;16.41;70.31;100991.28;5013292;28;20618;-73
2023/06/18 03:41:27;;;;;;;10.75;7.00;;;;;;;16.41;70.13;100993.88;4993602;28;20065;-73
2023/06/18 03:43:52;;;;;;;9.32;6.07;;;;;;;16.40;70.39;100994.88;5003128;28;20041;-73
2023/06/18 03:46:19;;;;;;;11.20;6.85;;;;;;;16.36;70.77;100994.44;4993929;28;20539;-72
2023/06/18 03:48:45;;;;;;;13.85;6.63;;;;;;;16.31;71.09;100992.41;4991996;28;20073;-72
2023/06/18 03:51:11;;;;;;;13.73;6.85;;;;;;;16.27;71.23;100991.13;4992936;28;20030;-73
2023/06/18 03:53:37;;;;;;;12.05;6.03;;;;;;;16.22;71.33;100996.16;4989890;28;20046;-73
2023/06/18 03:56:08;;;;;;;14.52;7.63;;;;;;;16.21;71.38;100996.34;4989110;28;20028;-72
2023/06/18 03:58:34;;;;;;;14.52;7.55;;;;;;;16.24;70.99;101001.19;4986281;28;20109;-72
2023/06/18 04:01:00;;;;;;;12.52;7.72;;;;;;;16.27;70.52;100996.38;4987270;28;20026;-73
2023/06/18 04:03:25;;;;;;;12.90;6.82;;;;;;;16.32;70.33;101004.47;4984826;28;20045;-72
2023/06/18 04:05:52;;;;;;;12.13;6.95;;;;;;;16.35;70.58;101003.31;4977499;28;20639;-72
2023/06/18 04:08:18;;;;;;;12.70;7.15;;;;;;;16.34;70.97;101012.94;4991816;28;20041;-73
2023/06/18 04:10:45;;;;;;;15.32;7.00;;;;;;;16.25;72.21;101008.84;5015808;28;20061;-72
2023/06/18 04:13:15;;;;;;;11.63;6.65;;;;;;;16.20;72.70;101010.41;5018409;28;20042;-72
2023/06/18 04:15:41;;;;;;;14.80;7.07;;;;;;;16.19;72.87;101012.22;5020105;28;20559;-72
2023/06/18 04:18:07;;;;;;;12.63;6.65;;;;;;;16.18;72.96;101013.22;5001109;28;20030;-73
2023/06/18 04:20:33;;;;;;;11.60;6.97;;;;;;;16.21;73.24;101012.84;5001050;28;20033;-73
2023/06/18 04:23:02;;;;;;;12.73;7.45;;;;;;;16.29;72.38;101010.09;4990127;28;20444;-72
2023/06/18 04:25:30;;;;;;;18.08;8.68;;;;;;;16.32;73.02;101014.13;5006559;28;20076;-72
2023/06/18 04:27:57;;;;;;;13.80;8.00;;;;;;;16.38;73.28;101008.16;5009914;28;20096;-72
2023/06/18 04:30:25;;;;;;;14.65;6.60;;;;;;;16.44;73.05;101020.47;4987246;28;20065;-72
2023/06/18 04:32:52;;;;;;;16.70;7.90;;;;;;;16.52;73.20;101019.53;4987853;28;20112;-72
2023/06/18 04:35:19;;;;;;;13.88;8.18;;;;;;;16.60;72.95;101019.41;5002672;28;20093;-72
2023/06/18 04:37:48;;;;;;;13.18;7.10;;;;;;;16.70;72.56;101021.66;4983404;28;20061;-73
2023/06/18 04:40:13;;;;;;;13.27;6.63;;;;;;;16.79;72.25;101012.66;4998318;28;20046;-72
2023/06/18 04:42:41;;;;;;;13.63;7.07;;;;;;;16.88;72.24;101016.78;4987282;28;21548;-72
2023/06/18 04:45:11;;;;;;;11.30;7.07;;;;;;;16.93;72.17;101006.56;5002119;28;20977;-72
2023/06/18 04:47:37;;;;;;;11.88;7.43;;;;;;;17.09;70.03;101008.03;4988878;28;20037;-73
2023/06/18 04:50:04;;;;;;;14.73;8.55;;;;;;;17.09;69.05;101010.66;4974879;28;20049;-73
2023/06/18 04:52:33;;;;;;;13.35;7.30;;;;;;;17.16;68.53;101010.72;5012071;28;20038;-72
2023/06/18 04:54:58;;;;;;;13.00;7.68;;;;;;;17.19;67.50;101015.53;5004644;28;20069;-72
2023/06/18 04:57:27;;;;;;;16.85;7.32;;;;;;;17.22;67.40;101016.97;4993496;28;20113;-72
2023/06/18 04:59:54;;;;;;;11.57;7.22;;;;;;;17.21;67.78;101008.28;4986530;28;20048;-73
2023/06/18 05:02:20;;;;;;;13.13;7.47;;;;;;;17.25;68.70;101016.56;5026228;28;20026;-72
2023/06/18 05:04:46;;;;;;;12.52;7.38;;;;;;;17.30;69.07;101014.19;5035133;28;20132;-72
2023/06/18 05:07:16;;;;;;;14.70;7.47;;;;;;;17.37;69.24;101015.03;5025027;28;20029;-73
2023/06/18 05:09:41;;;;;;;14.07;7.60;;;;;;;17.43;68.83;101014.25;5009498;28;20033;-73
2023/06/18 05:12:08;;;;;;;15.85;8.25;;;;;;;17.45;67.86;101009.59;5005957;28;20535;-73
2023/06/18 05:14:34;;;;;;;15.70;7.30;;;;;;;17.57;67.57;101009.84;5011137;28;20497;-72
2023/06/18 05:17:00;;;;;;;17.70;6.88;;;;;;;17.53;67.79;101006.00;5008072;28;20029;-72
2023/06/18 05:19:25;;;;;;;13.32;7.72;;;;;;;17.57;68.45;101016.91;4982904;28;20109;-73
2023/06/18 05:21:51;;;;;;;10.57;6.32;;;;;;;17.64;68.61;101013.28;4994001;28;20037;-73
2023/06/18 05:24:18;;;;;;;13.93;7.75;;;;;;;17.76;69.10;101016.16;4996527;28;20600;-72
2023/06/18 05:26:47;;;;;;;12.43;7.63;;;;;;;17.73;68.53;101021.81;4999818;28;20030;-72
2023/06/18 05:29:15;;;;;;;17.90;8.77;;;;;;;17.86;67.70;101019.25;4987360;28;20125;-73
2023/06/18 05:31:41;;;;;;;14.52;8.50;;;;;;;17.90;67.21;101014.41;4979939;28;20018;-72
2023/06/18 05:34:14;;;;;;;;;;;;;;;17.97;67.37;101017.03;5003675;28;20053;-72
2023/06/18 05:36:40;;;;;;;18.60;8.32;;;;;;;18.02;67.62;101012.78;4990550;28;19917;-73
2023/06/18 05:39:05;;;;;;;15.07;8.55;;;;;;;18.02;68.13;101020.66;4985477;28;20038;-73
2023/06/18 05:41:31;;;;;;;17.35;8.20;;;;;;;18.13;67.24;101028.97;4988413;28;20400;-73
2023/06/18 05:43:56;;;;;;;15.13;8.35;;;;;;;18.19;66.47;101025.53;4992286;28;20057;-71
2023/06/18 05:46:23;;;;;;;15.32;7.32;;;;;;;18.37;66.73;101019.69;4981135;28;20030;-72
2023/06/18 05:48:49;;;;;;;15.70;7.85;;;;;;;18.37;65.29;101025.75;4988996;28;20042;-73
2023/06/18 05:51:17;;;;;;;15.82;7.38;;;;;;;18.40;65.01;101016.66;4989776;28;20170;-71
2023/06/18 05:53:42;;;;;;;12.30;8.02;;;;;;;18.67;63.88;101030.59;4989473;28;20611;-72
2023/06/18 05:56:09;;;;;;;12.43;7.55;;;;;;;18.79;64.03;101026.31;5002890;28;20489;-72
2023/06/18 05:58:35;;;;;;;13.93;8.20;;;;;;;18.96;63.02;101028.53;5007914;28;20104;-72
2023/06/18 06:01:01;;;;;;;13.38;7.45;;;;;;;19.13;62.57;101029.69;5007140;28;20033;-72
2023/06/18 06:03:26;;;;;;;12.05;7.00;;;;;;;19.14;61.60;101036.59;5014206;28;20057;-73
2023/06/18 06:05:52;;;;;;;13.00;7.47;;;;;;;19.25;60.98;101030.69;5003665;28;20048;-72
2023/06/18 06:08:17;;;;;;;12.43;6.65;;;;;;;19.37;60.62;101030.03;5007555;28;20037;-73
2023/06/18 06:10:48;;;;;;;11.45;6.80;;;;;;;19.39;59.42;101030.63;5009959;28;20034;-72
2023/06/18 06:13:14;;;;;;;12.20;6.50;;;;;;;19.49;58.52;101036.25;5003987;28;20176;-72
2023/06/18 06:15:41;;;;;;;12.60;6.80;;;;;;;19.47;58.33;101030.38;5005131;28;20034;-71
2023/06/18 06:18:07;;;;;;;13.73;6.53;;;;;;;19.53;58.43;101031.38;5002118;28;20033;-73
2023/06/18 06:20:32;;;;;;;11.93;6.35;;;;;;;19.58;59.15;101032.34;5009200;28;20038;-73
2023/06/18 06:22:58;;;;;;;14.05;6.38;;;;;;;19.77;58.80;101029.88;5044713;28;20030;-73
2023/06/18 06:25:25;;;;;;;9.18;6.32;;;;;;;19.99;58.04;101025.88;5004861;28;20104;-72
2023/06/18 06:27:50;;;;;;;12.18;6.32;;;;;;;20.17;57.26;101027.78;5011120;28;20029;-73
2023/06/18 06:30:16;;;;;;;12.40;6.30;;;;;;;20.25;56.76;101026.72;5012996;28;20030;-72
2023/06/18 06:32:42;;;;;;;9.50;6.18;;;;;;;20.32;58.00;101029.28;5051339;28;20029;-73
2023/06/18 06:35:07;;;;;;;12.45;6.05;;;;;;;20.44;59.22;101024.94;5015320;28;20947;-72
2023/06/18 06:37:34;;;;;;;9.98;6.30;;;;;;;20.56;56.00;101027.66;5017490;28;20021;-72
2023/06/18 06:40:02;;;;;;;11.23;6.75;;;;;;;20.62;54.83;101034.72;5022865;28;20042;-72
2023/06/18 06:42:30;;;;;;;10.23;5.55;;;;;;;20.70;54.56;101036.28;5007147;28;20097;-73
2023/06/18 06:45:15;;;;;;;11.10;5.70;;;;;;;20.89;53.45;101029.19;5007237;28;20053;-72
2023/06/18 06:47:59;;;;;;;10.82;6.22;;;;;;;21.02;53.24;101025.63;5014591;28;20052;-72
2023/06/18 06:50:43;;;;;;;8.60;5.25;;;;;;;21.26;52.73;101029.19;5013793;28;20076;-73
2023/06/18 06:53:13;;;;;;;12.52;5.68;;;;;;;21.38;51.90;101025.59;5020948;28;20038;-73
2023/06/18 06:55:39;;;;;;;13.55;5.32;;;;;;;21.27;51.50;101033.47;4993570;28;20029;-72
2023/06/18 06:58:09;;;;;;;9.82;5.35;;;;;;;21.49;52.08;101034.63;5030062;28;20095;-73
2023/06/18 07:00:35;;;;;;;13.00;5.68;;;;;;;21.73;52.02;101035.50;5013388;28;20029;-72
2023/06/18 07:03:00;;;;;;;8.73;5.68;;;;;;;21.66;50.31;101029.53;5007045;28;20661;-72
2023/06/18 07:05:26;;;;;;;7.30;5.03;;;;;;;21.74;50.97;101039.75;5009769;28;20139;-72
2023/06/18 07:07:51;;;;;;;8.48;5.43;;;;;;;21.74;48.48;101045.03;5012695;28;20428;-72
2023/06/18 07:10:17;;;;;;;12.57;5.80;;;;;;;21.76;48.87;101039.53;5012584;28;20057;-73
2023/06/18 07:12:42;;;;;;;9.60;5.80;;;;;;;21.91;48.60;101033.84;5016169;28;20055;-72
2023/06/18 07:15:09;;;;;;;7.95;5.18;;;;;;;22.07;47.48;101042.94;5008197;28;20180;-72
2023/06/18 07:17:34;;;;;;;9.45;5.60;;;;;;;22.20;47.49;101034.81;5013414;28;20042;-72
2023/06/18 07:20:00;;;;;;;7.22;4.90;;;;;;;22.30;48.67;101035.09;5010837;28;20054;-73
2023/06/18 07:22:25;;;;;;;8.75;4.25;;;;;;;22.35;49.91;101037.06;5024956;28;20034;-73
2023/06/18 07:24:51;;;;;;;8.90;4.80;;;;;;;22.42;49.57;101042.25;5014731;28;20052;-73
2023/06/18 07:27:16;;;;;;;10.43;5.22;;;;;;;22.53;47.68;101041.44;5012453;28;20041;-72
2023/06/18 07:29:42;;;;;;;9.90;5.00;;;;;;;22.59;47.22;101042.34;5023799;28;20253;-72
2023/06/18 07:32:07;;;;;;;8.95;5.47;;;;;;;22.55;48.22;101026.16;5009472;28;20592;-73
2023/06/18 07:34:33;;;;;;;8.50;5.30;;;;;;;22.53;49.63;101033.50;5029358;28;20046;-73
2023/06/18 07:36:58;;;;;;;6.97;4.80;;;;;;;22.81;48.80;101031.97;5008617;28;20034;-73
2023/06/18 07:39:25;;;;;;;8.80;5.07;;;;;;;23.17;46.90;101038.88;5011620;28;20041;-72
2023/06/18 07:41:51;;;;;;;15.30;5.35;;;;;;;23.25;44.31;101033.19;5010616;28;20038;-73
2023/06/18 07:44:16;;;;;;;11.38;5.40;;;;;;;23.57;44.66;101035.38;5010761;28;20049;-72
2023/06/18 07:46:48;;;;;;;11.23;4.43;;;;;;;23.94;43.31;101032.38;5008581;28;20113;-72
2023/06/18 07:49:16;;;;;;;14.77;5.20;;;;;;;24.10;43.92;101030.75;5015051;28;20042;-73
2023/06/18 07:51:45;;;;;;;11.32;5.18;;;;;;;23.87;42.48;101032.50;4984623;28;20035;-73
2023/06/18 07:54:10;;;;;;;10.02;5.07;;;;;;;23.97;43.92;101033.72;4991216;28;20119;-73
2023/06/18 07:56:36;;;;;;;6.65;4.82;;;;;;;24.16;44.27;101037.72;4973312;28;20039;-73
2023/06/18 07:59:01;;;;;;;8.15;4.47;;;;;;;24.26;44.47;101029.97;4990642;28;20501;-73
2023/06/18 08:01:27;;;;;;;12.60;4.88;;;;;;;24.34;45.15;101039.34;4990711;28;20052;-72
2023/06/18 08:03:53;;;;;;;10.13;4.65;;;;;;;24.20;43.36;101032.75;5023976;28;20046;-73
2023/06/18 08:06:18;;;;;;;7.28;5.47;;;;;;;24.04;43.72;101031.72;5006256;28;20518;-73
2023/06/18 08:08:46;;;;;;;9.65;5.03;;;;;;;23.93;43.63;101033.38;5011748;28;20057;-73
2023/06/18 08:11:12;;;;;;;7.22;4.55;;;;;;;23.90;44.18;101042.63;5013339;28;20172;-73
2023/06/18 08:13:40;;;;;;;7.00;4.53;;;;;;;23.98;45.75;101051.19;5009029;28;20057;-74
2023/06/18 08:16:06;;;;;;;13.88;4.78;;;;;;;24.01;46.17;101059.47;5007569;28;20033;-74
2023/06/18 08:18:33;;;;;;;9.43;4.93;;;;;;;24.13;46.46;101059.41;5005756;28;20128;-73
2023/06/18 08:20:58;;;;;;;10.40;5.13;;;;;;;24.21;45.92;101045.75;4978338;28;20053;-73
2023/06/18 08:23:24;;;;;;;12.45;4.88;;;;;;;24.35;44.02;101034.84;4990423;28;20547;-73
2023/06/18 08:25:49;;;;;;;7.85;5.47;;;;;;;24.44;44.51;101041.34;4993137;28;20026;-74
2023/06/18 08:28:18;;;;;;;7.78;4.30;;;;;;;24.81;44.58;101038.19;4988461;28;20413;-73
2023/06/18 08:30:45;;;;;;;14.55;4.50;;;;;;;25.22;42.64;101018.25;5018326;28;20085;-74
2023/06/18 08:33:13;;;;;;;6.85;4.20;;;;;;;25.40;42.66;101034.91;5023631;28;20167;-73
2023/06/18 08:35:39;;;;;;;9.70;5.28;;;;;;;25.59;43.64;101038.03;5008485;28;20111;-76
2023/06/18 08:38:04;;;;;;;7.75;4.10;;;;;;;25.76;42.17;101032.59;5026100;28;20026;-74
2023/06/18 08:40:36;;;;;;;8.30;4.45;;;;;;;25.83;39.67;101015.41;5023440;28;20085;-74
2023/06/18 08:43:04;;;;;;;8.35;4.35;;;;;;;25.81;40.61;101028.16;4989212;28;20057;-75
2023/06/18 08:45:30;;;;;;;7.38;3.92;;;;;;;26.03;41.06;101028.09;5024009;28;20033;-74
2023/06/18 08:47:59;;;;;;;12.23;4.32;;;;;;;26.48;39.06;101017.22;4994638;28;20041;-74
2023/06/18 08:50:28;;;;;;;9.50;4.10;;;;;;;27.08;36.92;101017.78;5035094;28;20183;-73
2023/06/18 08:52:59;;;;;;;10.15;4.10;;;;;;;27.43;36.71;101019.00;5008848;28;20025;-74
2023/06/18 08:55:27;;;;;;;9.98;4.30;;;;;;;27.86;36.04;101022.19;5004600;28;20501;-74
2023/06/18 08:58:08;;;;;;;12.30;3.75;;;;;;;27.94;35.73;101021.72;4989889;28;20113;-74
2023/06/18 09:00:33;;;;;;;8.90;4.38;;;;;;;27.75;33.71;101016.88;4985165;28;20674;-74
2023/06/18 09:03:00;;;;;;;8.07;4.07;;;;;;;27.93;35.17;101015.59;4987185;28;20045;-75
2023/06/18 09:05:26;;;;;;;11.23;3.78;;;;;;;28.24;34.26;101017.44;4983809;28;20046;-75
2023/06/18 09:07:54;;;;;;;11.45;4.20;;;;;;;28.34;34.20;101010.19;4986584;28;20054;-74
2023/06/18 09:10:20;;;;;;;8.32;4.13;;;;;;;28.56;34.57;101018.94;4986003;28;20049;-75
2023/06/18 09:12:46;;;;;;;5.78;3.83;;;;;;;28.37;33.86;101014.19;4987492;28;20030;-75
2023/06/18 09:15:13;;;;;;;10.20;3.83;;;;;;;28.15;34.92;101022.50;5006191;28;20062;-76
2023/06/18 09:17:40;;;;;;;10.65;4.38;;;;;;;27.86;35.22;101019.53;4989175;28;20026;-75
2023/06/18 09:20:12;;;;;;;6.70;4.20;;;;;;;27.57;36.15;101020.06;4993834;28;20046;-75
2023/06/18 09:22:46;;;;;;;15.35;4.43;;;;;;;27.42;36.40;101025.38;4990108;28;20441;-75
2023/06/18 09:25:17;;;;;;;7.35;4.47;;;;;;;27.38;36.01;101023.22;4989554;28;20046;-75
2023/06/18 09:27:44;;;;;;;5.50;4.15;;;;;;;27.26;36.20;101014.69;4991572;28;20034;-75
2023/06/18 09:30:23;;;;;;;11.52;4.78;;;;;;;27.32;36.65;101016.28;5022079;28;20554;-74
2023/06/18 09:32:48;;;;;;;8.85;4.70;;;;;;;27.37;37.17;101018.19;5013046;28;20122;-75
2023/06/18 09:35:18;;;;;;;5.88;4.15;;;;;;;27.75;36.70;101019.53;5009196;28;20546;-74
2023/06/18 09:37:44;;;;;;;6.53;4.22;;;;;;;28.08;36.96;101020.09;5012579;28;20026;-74
2023/06/18 09:40:21;;;;;;;10.48;4.22;;;;;;;28.41;36.52;101009.91;5005385;28;20045;-74
2023/06/18 09:42:49;;;;;;;6.68;4.30;;;;;;;28.76;35.35;101000.22;5009503;28;20053;-74
2023/06/18 09:45:18;;;;;;;8.70;4.40;;;;;;;29.24;33.78;100989.88;5041461;28;20140;-74
2023/06/18 09:47:49;;;;;;;8.35;4.25;;;;;;;29.64;32.59;100997.88;5004433;28;20053;-73
2023/06/18 09:50:16;;;;;;;8.13;4.25;;;;;;;29.80;31.56;100993.19;5004538;28;20041;-76
2023/06/18 09:52:48;;;;;;;7.03;4.40;;;;;;;29.69;32.46;100987.94;5010066;28;20567;-75
2023/06/18 09:55:29;;;;;;;6.15;4.18;;;;;;;30.06;31.75;100989.25;5004550;28;20577;-74
2023/06/18 09:57:54;;;;;;;9.20;4.03;;;;;;;30.00;31.27;100984.22;5005725;28;20029;-74
2023/06/18 10:00:20;;;;;;;11.10;5.15;;;;;;;29.67;31.83;100986.63;5009909;28;20575;-74
2023/06/18 10:02:46;;;;;;;8.23;4.10;;;;;;;29.65;32.17;100992.25;5013039;28;20121;-73
2023/06/18 10:05:11;;;;;;;9.50;4.57;;;;;;;29.36;32.26;100992.19;5011900;28;20053;-75
2023/06/18 10:07:40;;;;;;;6.18;4.30;;;;;;;29.77;31.85;100983.88;5016207;28;20065;-75
2023/06/18 10:10:13;;;;;;;7.85;4.15;;;;;;;30.09;31.23;100974.50;5011598;28;20038;-75
2023/06/18 10:12:41;;;;;;;11.00;4.78;;;;;;;29.67;31.81;100970.59;5012233;28;20036;-74
2023/06/18 10:15:14;;;;;;;7.88;4.20;;;;;;;29.53;32.45;100973.09;5014641;28;20041;-74
2023/06/18 10:17:51;;;;;;;8.15;4.32;;;;;;;29.66;32.40;100969.00;5012575;28;20042;-74
2023/06/18 10:20:18;;;;;;;8.25;4.32;;;;;;;29.76;31.38;100960.13;5015865;28;20049;-74
2023/06/18 10:22:48;;;;;;;6.32;4.00;;;;;;;29.82;32.52;100959.81;5015477;28;20187;-76
2023/06/18 10:25:15;;;;;;;6.07;4.05;;;;;;;29.87;31.78;100956.28;4995156;28;20107;-74
2023/06/18 10:27:41;;;;;;;10.90;4.10;;;;;;;30.03;31.08;100960.41;5044319;28;20484;-74
2023/06/18 10:30:10;;;;;;;6.05;4.25;;;;;;;29.86;30.92;100958.16;4992125;28;21094;-74
2023/06/18 10:32:38;;;;;;;6.40;4.35;;;;;;;29.81;30.42;100960.88;4996795;28;20032;-74
2023/06/18 10:35:08;;;;;;;6.93;3.63;;;;;;;30.19;29.69;100961.00;5012211;28;20074;-75
2023/06/18 10:37:35;;;;;;;7.45;4.35;;;;;;;30.16;30.30;100958.94;5031807;28;20033;-76
2023/06/18 10:40:05;;;;;;;24.98;4.72;;;;;;;29.99;31.66;100955.88;5010865;28;20042;-75
2023/06/18 10:42:32;;;;;;;7.63;4.53;;;;;;;29.62;31.07;100960.75;5029098;28;20056;-74
2023/06/18 10:45:09;;;;;;;8.75;4.43;;;;;;;29.49;32.40;100954.16;5017038;28;20068;-74
2023/06/18 10:47:34;;;;;;;6.18;4.18;;;;;;;29.63;31.30;100956.19;5013294;28;20038;-75
2023/06/18 10:50:00;;;;;;;6.47;3.95;;;;;;;29.57;30.45;100949.31;5016121;28;20049;-75
2023/06/18 10:52:36;;;;;;;11.00;4.53;;;;;;;29.72;30.23;100961.72;5013057;28;20116;-75
2023/06/18 10:55:15;;;;;;;6.40;4.05;;;;;;;29.75;29.52;100950.53;5015604;28;20041;-74
2023/06/18 10:57:44;;;;;;;7.07;4.15;;;;;;;29.86;29.37;100944.78;5007393;28;20037;-76
2023/06/18 11:00:29;;;;;;;7.05;4.13;;;;;;;29.85;30.30;100947.75;5027469;28;20552;-75
2023/06/18 11:03:20;;;;;;;10.45;4.80;;;;;;;29.58;30.30;100949.03;5009584;28;20597;-76
2023/06/18 11:05:51;;;;;;;5.78;4.22;;;;;;;29.55;30.16;100938.88;5013430;28;20042;-75
2023/06/18 11:08:29;;;;;;;5.72;3.70;;;;;;;29.64;30.47;100937.22;5008688;28;20083;-75
2023/06/18 11:11:03;;;;;;;8.55;4.22;;;;;;;29.71;31.17;100936.91;5011258;28;20100;-76
2023/06/18 11:13:34;;;;;;;6.15;4.13;;;;;;;29.81;30.76;100928.81;5014602;28;20045;-74
2023/06/18 11:16:07;;;;;;;6.40;4.28;;;;;;;29.85;31.03;100934.38;5007046;28;20057;-76
2023/06/18 11:18:36;;;;;;;6.18;4.60;;;;;;;29.99;31.37;100924.63;5008275;28;20084;-75
2023/06/18 11:21:03;;;;;;;6.18;3.55;;;;;;;30.10;31.07;100919.94;5008577;28;20063;-75
2023/06/18 11:23:29;;;;;;;6.22;3.80;;;;;;;29.93;29.70;100919.59;5012950;28;20193;-75
2023/06/18 11:25:59;;;;;;;5.57;3.90;;;;;;;30.16;29.67;100920.69;5007429;28;20116;-75